createdAt,value
2022-11-24T00:01:36.133Z,5.07
2022-11-24T00:04:06.195Z,5.63
2022-11-24T00:07:57.416Z,5.30
2022-11-24T00:10:12.889Z,5.88
2022-11-24T00:13:19.470Z,5.25
2022-11-24T00:16:20.964Z,6.30
2022-11-24T00:19:40.545Z,7.38
2022-11-24T00:22:22.419Z,8.65
2022-11-24T00:24:51.232Z,7.55
2022-11-24T00:27:49.284Z,5.60
2022-11-24T00:33:45.655Z,5.18
2022-11-24T00:36:15.821Z,5.63
2022-11-24T00:39:11.364Z,5.65
2022-11-24T00:41:39.367Z,5.78
2022-11-24T00:44:07.831Z,5.95
2022-11-24T00:46:36.189Z,5.70
2022-11-24T00:49:04.615Z,6.75
2022-11-24T00:51:32.442Z,7.95
2022-11-24T00:54:01.368Z,7.38
2022-11-24T00:56:30.713Z,6.03
2022-11-24T00:58:59.165Z,6.35
2022-11-24T01:01:29.715Z,5.38
2022-11-24T01:04:01.489Z,5.47
2022-11-24T01:06:30.434Z,5.20
2022-11-24T01:08:58.533Z,5.38
2022-11-24T01:11:54.578Z,5.07
2022-11-24T01:14:24.611Z,4.93
2022-11-24T01:16:53.233Z,5.80
2022-11-24T01:19:21.466Z,4.95
2022-11-24T01:21:50.121Z,6.05
2022-11-24T01:24:18.421Z,6.38
2022-11-24T01:26:46.391Z,6.15
2022-11-24T01:29:14.339Z,6.05
2022-11-24T01:31:42.258Z,5.65
2022-11-24T01:34:10.700Z,6.13
2022-11-24T01:36:39.224Z,6.47
2022-11-24T01:39:07.282Z,6.07
2022-11-24T01:41:35.885Z,6.00
2022-11-24T01:44:30.335Z,6.13
2022-11-24T01:46:59.313Z,5.72
2022-11-24T01:49:49.318Z,5.25
2022-11-24T01:52:27.475Z,5.72
2022-11-24T01:55:05.341Z,6.85
2022-11-24T01:57:38.508Z,5.95
2022-11-24T02:00:10.518Z,5.88
2022-11-24T02:02:43.705Z,6.47
2022-11-24T02:05:24.378Z,6.78
2022-11-24T02:07:56.126Z,7.32
2022-11-24T02:10:24.294Z,6.38
2022-11-24T02:12:55.331Z,8.00
2022-11-24T02:15:23.663Z,6.65
2022-11-24T02:17:51.528Z,7.05
2022-11-24T02:20:19.335Z,6.70
2022-11-24T02:23:14.899Z,6.30
2022-11-24T02:25:56.769Z,6.93
2022-11-24T02:28:29.769Z,6.47
2022-11-24T02:31:00.286Z,6.50
2022-11-24T02:33:28.540Z,6.53
2022-11-24T02:35:56.257Z,6.60
2022-11-24T02:38:34.641Z,6.63
2022-11-24T02:41:13.995Z,6.93
2022-11-24T02:48:03.103Z,8.80
2022-11-24T02:50:30.895Z,7.82
2022-11-24T02:52:58.649Z,6.75
2022-11-24T02:55:26.395Z,7.13
2022-11-24T02:57:54.069Z,7.15
2022-11-24T03:00:22.543Z,7.43
2022-11-24T03:02:50.494Z,6.90
2022-11-24T03:05:18.460Z,6.45
2022-11-24T03:07:46.386Z,7.13
2022-11-24T03:10:14.093Z,6.78
2022-11-24T03:12:41.695Z,7.10
2022-11-24T03:15:09.731Z,8.38
2022-11-24T03:17:37.446Z,6.32
2022-11-24T03:20:05.584Z,7.50
2022-11-24T03:22:33.317Z,8.48
2022-11-24T03:25:01.331Z,8.82
2022-11-24T03:27:30.951Z,7.90
2022-11-24T03:30:01.969Z,8.95
2022-11-24T03:32:31.380Z,8.98
2022-11-24T03:34:59.330Z,8.70
2022-11-24T03:37:27.409Z,8.20
2022-11-24T03:39:56.289Z,8.60
2022-11-24T03:42:24.289Z,8.20
2022-11-24T03:44:52.473Z,8.07
2022-11-24T03:47:23.656Z,7.90
2022-11-24T03:49:51.483Z,7.35
2022-11-24T03:52:59.974Z,8.00
2022-11-24T03:55:38.855Z,7.85
2022-11-24T03:58:06.528Z,8.60
2022-11-24T04:00:34.393Z,8.38
2022-11-24T04:03:02.299Z,7.75
2022-11-24T04:05:30.218Z,8.18
2022-11-24T04:07:58.660Z,7.85
2022-11-24T04:10:26.434Z,7.72
2022-11-24T04:12:54.164Z,8.15
2022-11-24T04:15:22.331Z,8.07
2022-11-24T04:17:50.637Z,8.07
2022-11-24T04:20:18.424Z,7.60
2022-11-24T04:22:46.210Z,7.20
2022-11-24T04:25:13.969Z,7.45
2022-11-24T04:27:41.842Z,6.88
2022-11-24T04:30:10.554Z,7.03
2022-11-24T04:32:38.321Z,6.20
2022-11-24T04:35:08.801Z,7.07
2022-11-24T04:37:36.583Z,7.55
2022-11-24T04:40:05.843Z,18.85
2022-11-24T04:42:33.640Z,15.60
2022-11-24T04:45:01.552Z,11.00
2022-11-24T04:47:30.818Z,9.13
2022-11-24T04:49:58.704Z,8.45
2022-11-24T04:52:26.979Z,8.23
2022-11-24T04:54:54.871Z,9.05
2022-11-24T04:57:29.398Z,9.77
2022-11-24T04:59:59.838Z,8.98
2022-11-24T05:02:30.360Z,8.23
2022-11-24T05:04:58.547Z,6.93
2022-11-24T05:07:26.585Z,6.90
2022-11-24T05:10:12.739Z,6.28
2022-11-24T05:12:48.444Z,6.55
2022-11-24T05:15:40.142Z,8.30
2022-11-24T05:18:29.660Z,7.28
2022-11-24T05:21:00.533Z,5.95
2022-11-24T05:23:29.317Z,6.82
2022-11-24T05:26:04.017Z,6.57
2022-11-24T05:28:32.544Z,4.03
2022-11-24T05:31:04.430Z,5.43
2022-11-24T05:33:33.773Z,6.13
2022-11-24T05:36:03.108Z,6.68
2022-11-24T05:38:31.543Z,6.43
2022-11-24T05:41:04.714Z,5.57
2022-11-24T05:43:32.588Z,5.45
2022-11-24T05:46:02.745Z,5.55
2022-11-24T05:48:33.390Z,5.57
2022-11-24T05:51:04.171Z,5.28
2022-11-24T05:53:38.518Z,4.97
2022-11-24T05:56:12.368Z,4.72
2022-11-24T05:59:05.364Z,4.38
2022-11-24T06:01:43.219Z,4.85
2022-11-24T06:04:28.051Z,5.03
2022-11-24T06:42:07.179Z,4.63
2022-11-24T06:48:56.035Z,2.45
2022-11-24T06:51:44.537Z,4.68
2022-11-24T06:54:21.903Z,4.30
2022-11-24T06:57:18.321Z,4.95
2022-11-24T07:00:21.982Z,4.78
2022-11-24T07:03:01.757Z,4.80
2022-11-24T07:08:44.345Z,4.80
2022-11-24T07:11:24.702Z,4.43
2022-11-24T07:14:13.666Z,4.90
2022-11-24T07:17:03.001Z,4.03
2022-11-24T07:19:52.940Z,4.78
2022-11-24T07:22:47.378Z,4.80
2022-11-24T07:25:37.200Z,5.40
2022-11-24T08:28:07.896Z,3.97
2022-11-24T09:38:29.487Z,3.40
2022-11-24T09:41:22.061Z,3.33
2022-11-24T09:44:23.502Z,2.75
2022-11-24T09:47:51.850Z,3.53
2022-11-24T09:50:51.911Z,2.85
2022-11-24T09:54:01.395Z,3.53
2022-11-24T09:56:56.939Z,3.95
2022-11-24T09:59:27.870Z,3.15
2022-11-24T10:02:26.651Z,3.55
2022-11-24T10:05:17.199Z,4.35
2022-11-24T10:08:31.036Z,3.78
2022-11-24T10:11:01.131Z,3.25
2022-11-24T10:14:08.036Z,3.00
2022-11-24T10:17:09.700Z,2.72
2022-11-24T10:20:18.974Z,3.83
2022-11-24T10:23:32.659Z,3.60
2022-11-24T10:26:20.157Z,3.63
2022-11-24T10:29:39.893Z,3.53
2022-11-24T10:31:57.355Z,2.38
2022-11-24T10:34:55.287Z,3.03
2022-11-24T10:37:58.210Z,3.40
2022-11-24T10:40:56.881Z,3.70
2022-11-24T10:43:47.953Z,3.92
2022-11-24T10:47:01.572Z,3.85
2022-11-24T10:49:37.449Z,3.08
2022-11-24T10:52:54.172Z,4.03
2022-11-24T10:55:36.838Z,3.80
2022-11-24T10:58:54.905Z,4.00
2022-11-24T11:01:17.409Z,3.80
2022-11-24T11:04:18.429Z,3.80
2022-11-24T11:07:08.887Z,3.72
2022-11-24T11:09:57.450Z,3.60
2022-11-24T11:12:43.814Z,4.13
2022-11-24T11:15:53.716Z,4.03
2022-11-24T11:18:51.412Z,2.90
2022-11-24T11:21:57.851Z,3.60
2022-11-24T11:24:41.110Z,3.65
2022-11-24T11:27:47.424Z,4.88
2022-11-24T11:31:20.659Z,4.10
2022-11-24T11:36:38.552Z,3.58
2022-11-24T11:39:17.166Z,4.03
2022-11-24T11:42:37.833Z,4.13
2022-11-24T11:45:40.468Z,3.30
2022-11-24T11:48:25.788Z,3.92
2022-11-24T11:51:31.261Z,3.78
2022-11-24T11:54:21.666Z,4.13
2022-11-24T11:57:21.137Z,3.83
2022-11-24T12:00:32.361Z,4.20
2022-11-24T12:03:57.602Z,2.50
2022-11-24T12:06:37.786Z,4.13
2022-11-24T12:09:57.444Z,3.47
2022-11-24T12:13:10.137Z,5.22
2022-11-24T12:16:13.819Z,4.22
2022-11-24T12:19:20.908Z,4.32
2022-11-24T12:22:10.220Z,4.93
2022-11-24T12:25:24.195Z,4.63
2022-11-24T12:28:13.644Z,4.47
2022-11-24T12:31:26.724Z,5.20
2022-11-24T12:35:08.439Z,3.97
2022-11-24T12:38:25.702Z,4.40
2022-11-24T13:57:36.343Z,5.80
2022-11-24T14:01:12.443Z,6.85
2022-11-24T14:04:35.509Z,6.60
2022-11-24T14:07:15.637Z,11.60
2022-11-24T14:10:05.674Z,19.35
2022-11-24T14:13:16.821Z,16.75
2022-11-24T14:16:19.435Z,20.17
2022-11-24T14:20:16.371Z,16.63
2022-11-24T14:40:55.721Z,8.88
2022-11-24T14:44:06.598Z,9.93
2022-11-24T15:00:55.322Z,31.98
2022-11-24T15:05:01.581Z,32.33
2022-11-24T15:08:03.438Z,26.83
2022-11-24T15:11:05.293Z,18.73
2022-11-24T15:13:58.615Z,16.08
2022-11-24T15:16:49.652Z,19.10
2022-11-24T15:19:42.259Z,15.88
2022-11-24T15:22:43.100Z,19.02
2022-11-24T15:25:35.045Z,14.88
2022-11-24T15:28:30.075Z,16.35
2022-11-24T15:31:19.020Z,30.50
2022-11-24T15:34:10.674Z,34.20
2022-11-24T15:37:02.029Z,32.72
2022-11-24T15:40:04.871Z,26.58
2022-11-24T15:43:15.719Z,18.95
2022-11-24T15:46:17.020Z,17.60
2022-11-24T15:49:45.645Z,16.20
2022-11-24T15:52:32.197Z,14.32
2022-11-24T15:55:48.316Z,11.68
2022-11-24T15:58:37.643Z,10.98
2022-11-24T16:01:30.898Z,8.95
2022-11-24T16:04:28.733Z,10.60
2022-11-24T16:07:40.127Z,14.93
2022-11-24T16:10:37.433Z,24.83
2022-11-24T16:13:47.011Z,25.08
2022-11-24T16:16:46.436Z,30.50
2022-11-24T16:19:44.888Z,17.60
2022-11-24T16:22:55.819Z,19.70
2022-11-24T16:26:10.309Z,17.92
2022-11-24T16:29:05.387Z,18.85
2022-11-24T16:32:33.977Z,29.98
2022-11-24T16:35:35.372Z,22.52
2022-11-24T16:38:41.063Z,33.42
2022-11-24T16:41:47.325Z,28.67
2022-11-24T16:44:42.326Z,13.55
2022-11-24T16:47:35.064Z,10.00
2022-11-24T16:50:25.753Z,9.45
2022-11-24T16:53:21.456Z,14.75
2022-11-24T16:56:09.063Z,14.80
2022-11-24T16:59:01.456Z,19.10
2022-11-24T17:01:53.949Z,22.95
2022-11-24T17:04:46.681Z,20.75
2022-11-24T17:07:54.128Z,14.07
2022-11-24T17:10:54.193Z,74.55
2022-11-24T17:14:04.236Z,32.83
2022-11-24T17:17:00.858Z,36.53
2022-11-24T17:20:27.936Z,29.60
2022-11-24T17:23:38.370Z,19.50
2022-11-24T17:26:36.273Z,14.25
2022-11-24T17:29:42.090Z,13.63
2022-11-24T17:32:39.715Z,16.42
2022-11-24T17:35:38.205Z,14.23
2022-11-24T17:38:37.182Z,10.95
2022-11-24T17:42:08.857Z,10.18
2022-11-24T17:45:27.208Z,13.57
2022-11-24T17:52:07.755Z,13.13
2022-11-24T17:55:21.810Z,10.15
2022-11-24T17:58:24.102Z,7.55
2022-11-24T18:01:15.522Z,7.93
2022-11-24T18:04:07.406Z,8.20
2022-11-24T18:07:03.594Z,8.68
2022-11-24T18:09:55.580Z,9.60
2022-11-24T18:12:36.119Z,8.93
2022-11-24T18:15:07.991Z,8.50
2022-11-24T18:17:41.293Z,8.07
2022-11-24T18:20:37.146Z,6.72
2022-11-24T18:23:33.327Z,7.57
2022-11-24T18:26:10.221Z,7.10
2022-11-24T18:30:08.244Z,8.95
2022-11-24T18:58:16.128Z,8.80
2022-11-24T19:01:26.339Z,8.32
2022-11-24T19:04:26.710Z,9.30
2022-11-24T19:07:05.607Z,10.27
2022-11-24T19:10:06.820Z,10.35
2022-11-24T19:13:00.302Z,9.10
2022-11-24T19:15:37.849Z,10.70
2022-11-24T19:18:54.476Z,9.57
2022-11-24T19:30:13.880Z,11.10
2022-11-24T19:37:31.471Z,14.57
2022-11-24T19:40:45.612Z,10.88
2022-11-24T19:43:23.998Z,10.07
2022-11-24T19:46:11.547Z,9.73
2022-11-24T19:49:23.143Z,11.27
2022-11-24T19:52:15.365Z,9.60
2022-11-24T19:58:30.693Z,8.88
2022-11-24T20:01:58.633Z,7.07
2022-11-24T20:05:32.383Z,9.13
2022-11-24T20:08:16.319Z,11.27
2022-11-24T20:10:46.375Z,11.77
2022-11-24T20:13:18.336Z,12.43
2022-11-24T20:15:48.995Z,13.68
2022-11-24T20:18:41.575Z,11.85
2022-11-24T20:21:38.415Z,10.35
2022-11-24T20:24:41.036Z,9.02
2022-11-24T20:27:11.979Z,8.13
2022-11-24T20:31:23.222Z,7.60
2022-11-24T20:34:12.623Z,8.32
2022-11-24T20:36:57.801Z,7.60
2022-11-24T20:39:55.925Z,6.82
2022-11-24T20:42:32.160Z,6.35
2022-11-24T20:45:13.516Z,6.47
2022-11-24T20:47:43.009Z,6.43
2022-11-24T20:50:24.162Z,6.40
2022-11-24T20:53:11.007Z,7.95
2022-11-24T20:57:00.626Z,8.65
2022-11-24T21:01:09.363Z,8.05
2022-11-24T21:02:58.971Z,8.73
2022-11-24T21:05:37.101Z,9.30
2022-11-24T21:08:27.049Z,8.75
2022-11-24T21:11:14.855Z,8.50
2022-11-24T21:15:10.121Z,8.38
2022-11-24T21:19:33.844Z,7.38
2022-11-24T21:23:05.789Z,7.40
2022-11-24T21:26:27.886Z,7.45
2022-11-24T21:29:21.310Z,8.35
2022-11-24T21:32:09.836Z,7.82
2022-11-24T21:35:00.230Z,7.47
2022-11-24T21:37:34.796Z,9.13
2022-11-24T21:40:37.875Z,9.68
2022-11-24T21:43:30.152Z,10.95
2022-11-24T21:46:18.865Z,14.98
2022-11-24T21:48:59.715Z,12.98
2022-11-24T21:51:49.177Z,8.40
2022-11-24T21:54:38.510Z,7.55
2022-11-24T21:57:29.380Z,7.97
2022-11-24T22:00:19.470Z,8.10
2022-11-24T22:02:50.394Z,8.40
2022-11-24T22:05:33.285Z,7.07
2022-11-24T22:08:22.350Z,8.30
2022-11-24T22:10:56.602Z,8.88
2022-11-24T22:13:45.631Z,8.85
2022-11-24T22:16:33.785Z,8.35
2022-11-24T22:19:22.123Z,8.43
2022-11-24T22:24:47.941Z,8.02
2022-11-24T22:27:17.108Z,7.65
2022-11-24T22:30:07.146Z,7.70
2022-11-24T22:32:55.208Z,8.20
2022-11-24T22:35:43.748Z,7.93
2022-11-24T22:38:33.178Z,8.88
2022-11-24T22:41:21.810Z,9.57
2022-11-24T22:44:14.800Z,7.32
2022-11-24T22:47:07.600Z,5.75
2022-11-24T22:49:58.468Z,6.05
2022-11-24T22:52:46.866Z,5.35
2022-11-24T22:55:22.852Z,6.32
2022-11-24T22:57:57.343Z,9.00
2022-11-24T23:00:26.779Z,8.45
2022-11-24T23:02:55.494Z,9.40
2022-11-24T23:05:44.645Z,8.18
2022-11-24T23:08:34.757Z,7.03
2022-11-24T23:11:37.463Z,5.93
2022-11-24T23:14:21.603Z,8.23
2022-11-24T23:16:50.333Z,6.45
2022-11-24T23:19:21.076Z,6.10
2022-11-24T23:22:09.804Z,4.65
2022-11-24T23:24:56.743Z,5.20
2022-11-24T23:27:26.016Z,5.97
2022-11-24T23:29:55.477Z,6.28
2022-11-24T23:32:43.955Z,6.05
2022-11-24T23:35:33.795Z,6.68
2022-11-24T23:38:09.286Z,6.60
2022-11-24T23:40:50.564Z,6.95
2022-11-24T23:43:23.837Z,7.00
2022-11-24T23:46:17.669Z,6.50
2022-11-24T23:48:54.052Z,5.70
2022-11-24T23:51:42.598Z,5.63
2022-11-24T23:54:31.145Z,5.53
2022-11-24T23:57:19.488Z,5.97
2022-11-24T23:59:53.183Z,5.05
